Nova Laranjeiras, Brazil
Current Conditions -  °F | °C
As of 12:00 PM on Thursday 23 Oct 2014 (Local Time) from SBCA Reporting Station
Clear Clear  
Wind Chill: 79°   Ceiling: Unl
Heat Index: 79°   Visibility: 6mi
Dew Point: 55°   Wind: 16mph
Humidity: 44%   Direction: 100°E
Pressure: 30.12"   Gusts: NA
Location:  25.31°S, 52.54°W
Report Text: SBCA 231400Z 10014KT CAVOK 26/13 Q1020
Loading
Personal Weather Stations






























Interactive Weather Map
Tropical Storm Tracking
New forecast layout! Learn more

10-Day Weather Forecast

Advertisements
Track Severe Weather on mobile